Weather at Tromsø Airport, Langnes

Public forecast

Using degrees Celsius for public forecast. Weather courtesy of forecast.io.

Current aviation weather report (METAR) for Tromsø Airport, Langnes

2024/02/22 11:20 (retrieved 24 minutes ago)

ENTC 221120Z 00000KT CAVOK M01/M03 Q0985 NOSIG RMK WIND 2600FT 18023KT

Aviation forecast (TAF) for Tromsø Airport, Langnes

2024/02/22 06:36 (retrieved 5 hours ago)

TAF ENTC 220500Z 2206/2306 05004KT CAVOK BECMG 2212/2214 18010KT